sensor_id;sensor_type;location;lat;lon;timestamp;pressure;altitude;pressure_sealevel;temperature;humidity
55217;BME280;41086;46.736;15.666;2022-08-02T00:02:21;98511.50;;;17.96;nan
55217;BME280;41086;46.736;15.666;2022-08-02T00:04:48;98516.25;;;17.84;nan
55217;BME280;41086;46.736;15.666;2022-08-02T00:07:15;98524.59;;;17.81;nan
55217;BME280;41086;46.736;15.666;2022-08-02T00:09:42;98501.00;;;17.84;nan
55217;BME280;41086;46.736;15.666;2022-08-02T00:12:10;98500.25;;;17.92;nan
55217;BME280;41086;46.736;15.666;2022-08-02T00:14:37;98492.88;;;17.94;nan
55217;BME280;41086;46.736;15.666;2022-08-02T00:17:04;98500.06;;;17.93;nan
55217;BME280;41086;46.736;15.666;2022-08-02T00:19:31;98507.59;;;17.90;nan
55217;BME280;41086;46.736;15.666;2022-08-02T00:21:58;98506.66;;;17.81;nan
55217;BME280;41086;46.736;15.666;2022-08-02T00:24:25;98513.69;;;17.82;nan
55217;BME280;41086;46.736;15.666;2022-08-02T00:26:56;98523.56;;;17.82;nan
55217;BME280;41086;46.736;15.666;2022-08-02T00:29:23;98514.88;;;17.70;nan
55217;BME280;41086;46.736;15.666;2022-08-02T00:31:50;98507.50;;;17.72;nan
55217;BME280;41086;46.736;15.666;2022-08-02T00:34:17;98504.16;;;17.70;nan
55217;BME280;41086;46.736;15.666;2022-08-02T00:36:55;98509.50;;;17.70;nan
55217;BME280;41086;46.736;15.666;2022-08-02T00:39:22;98511.88;;;17.73;nan
55217;BME280;41086;46.736;15.666;2022-08-02T00:42:01;98521.78;;;17.72;nan
55217;BME280;41086;46.736;15.666;2022-08-02T00:44:27;98521.91;;;17.71;nan
55217;BME280;41086;46.736;15.666;2022-08-02T00:46:54;98532.41;;;17.64;nan
55217;BME280;41086;46.736;15.666;2022-08-02T00:49:21;98526.06;;;17.56;nan
55217;BME280;41086;46.736;15.666;2022-08-02T00:51:48;98521.00;;;17.53;nan
55217;BME280;41086;46.736;15.666;2022-08-02T00:54:15;98537.09;;;17.53;nan
55217;BME280;41086;46.736;15.666;2022-08-02T00:56:42;98547.09;;;17.50;nan
55217;BME280;41086;46.736;15.666;2022-08-02T00:59:15;98559.75;;;17.58;nan
55217;BME280;41086;46.736;15.666;2022-08-02T01:01:42;98553.97;;;17.63;nan
55217;BME280;41086;46.736;15.666;2022-08-02T01:04:22;98571.56;;;17.75;nan
55217;BME280;41086;46.736;15.666;2022-08-02T01:06:56;98570.00;;;17.82;nan
55217;BME280;41086;46.736;15.666;2022-08-02T01:09:23;98583.09;;;17.85;nan
55217;BME280;41086;46.736;15.666;2022-08-02T01:11:50;98593.06;;;17.93;nan
55217;BME280;41086;46.736;15.666;2022-08-02T01:14:17;98586.88;;;17.92;nan
55217;BME280;41086;46.736;15.666;2022-08-02T01:16:59;98610.66;;;18.05;nan
55217;BME280;41086;46.736;15.666;2022-08-02T01:28:25;98619.00;;;18.30;nan
55217;BME280;41086;46.736;15.666;2022-08-02T01:32:34;98630.72;;;18.47;nan
55217;BME280;41086;46.736;15.666;2022-08-02T01:37:00;98631.97;;;18.52;nan
55217;BME280;41086;46.736;15.666;2022-08-02T01:39:33;98616.31;;;18.48;nan
55217;BME280;41086;46.736;15.666;2022-08-02T01:42:01;98614.31;;;18.50;nan
55217;BME280;41086;46.736;15.666;2022-08-02T01:44:32;98609.25;;;18.47;nan
55217;BME280;41086;46.736;15.666;2022-08-02T01:47:03;98600.22;;;18.48;nan
55217;BME280;41086;46.736;15.666;2022-08-02T01:49:32;98597.91;;;18.53;nan
55217;BME280;41086;46.736;15.666;2022-08-02T01:52:02;98603.28;;;18.53;nan
55217;BME280;41086;46.736;15.666;2022-08-02T01:55:00;98605.66;;;18.56;nan
55217;BME280;41086;46.736;15.666;2022-08-02T01:58:02;98577.97;;;18.55;nan
55217;BME280;41086;46.736;15.666;2022-08-02T02:00:32;98573.63;;;18.54;nan
55217;BME280;41086;46.736;15.666;2022-08-02T02:03:01;98553.59;;;18.49;nan
55217;BME280;41086;46.736;15.666;2022-08-02T02:05:31;98544.94;;;18.37;nan
55217;BME280;41086;46.736;15.666;2022-08-02T02:08:00;98551.53;;;18.43;nan
55217;BME280;41086;46.736;15.666;2022-08-02T02:10:31;98557.44;;;18.46;nan
55217;BME280;41086;46.736;15.666;2022-08-02T02:13:04;98547.03;;;18.43;nan
55217;BME280;41086;46.736;15.666;2022-08-02T02:15:33;98550.69;;;18.42;nan
55217;BME280;41086;46.736;15.666;2022-08-02T02:18:01;98538.41;;;18.39;nan
55217;BME280;41086;46.736;15.666;2022-08-02T02:20:39;98540.25;;;18.39;nan
55217;BME280;41086;46.736;15.666;2022-08-02T02:23:06;98534.50;;;18.34;nan
55217;BME280;41086;46.736;15.666;2022-08-02T02:25:34;98520.56;;;18.30;nan
55217;BME280;41086;46.736;15.666;2022-08-02T02:28:10;98537.06;;;18.35;nan
55217;BME280;41086;46.736;15.666;2022-08-02T02:30:41;98542.16;;;18.29;nan
55217;BME280;41086;46.736;15.666;2022-08-02T02:33:09;98543.00;;;18.29;nan
55217;BME280;41086;46.736;15.666;2022-08-02T02:35:38;98540.19;;;18.31;nan
55217;BME280;41086;46.736;15.666;2022-08-02T02:38:10;98538.66;;;18.28;nan
55217;BME280;41086;46.736;15.666;2022-08-02T02:40:39;98539.19;;;18.32;nan
55217;BME280;41086;46.736;15.666;2022-08-02T02:43:08;98529.97;;;18.34;nan
55217;BME280;41086;46.736;15.666;2022-08-02T02:45:38;98533.72;;;18.24;nan
55217;BME280;41086;46.736;15.666;2022-08-02T02:48:06;98541.47;;;18.09;nan
55217;BME280;41086;46.736;15.666;2022-08-02T02:50:35;98537.56;;;18.03;nan
55217;BME280;41086;46.736;15.666;2022-08-02T02:53:03;98569.38;;;18.16;nan
55217;BME280;41086;46.736;15.666;2022-08-02T02:55:31;98554.44;;;18.13;nan
55217;BME280;41086;46.736;15.666;2022-08-02T02:57:57;98552.16;;;18.19;nan
55217;BME280;41086;46.736;15.666;2022-08-02T03:00:25;98540.47;;;18.10;nan
55217;BME280;41086;46.736;15.666;2022-08-02T03:03:11;98543.63;;;18.05;nan
55217;BME280;41086;46.736;15.666;2022-08-02T03:05:39;98544.19;;;17.99;nan
55217;BME280;41086;46.736;15.666;2022-08-02T03:08:06;98536.31;;;17.98;nan
55217;BME280;41086;46.736;15.666;2022-08-02T03:10:33;98533.09;;;17.94;nan
55217;BME280;41086;46.736;15.666;2022-08-02T03:13:00;98534.94;;;17.93;nan
55217;BME280;41086;46.736;15.666;2022-08-02T03:15:28;98525.66;;;17.88;nan
55217;BME280;41086;46.736;15.666;2022-08-02T03:17:55;98529.16;;;17.88;nan
55217;BME280;41086;46.736;15.666;2022-08-02T03:20:22;98520.75;;;17.83;nan
55217;BME280;41086;46.736;15.666;2022-08-02T03:22:49;98528.09;;;17.81;nan
55217;BME280;41086;46.736;15.666;2022-08-02T03:25:17;98515.09;;;17.77;nan
55217;BME280;41086;46.736;15.666;2022-08-02T03:27:44;98523.44;;;17.83;nan
55217;BME280;41086;46.736;15.666;2022-08-02T03:30:12;98524.28;;;17.84;nan
55217;BME280;41086;46.736;15.666;2022-08-02T03:32:42;98523.28;;;17.85;nan
55217;BME280;41086;46.736;15.666;2022-08-02T03:35:11;98519.22;;;17.81;nan
55217;BME280;41086;46.736;15.666;2022-08-02T03:37:39;98522.56;;;17.83;nan
55217;BME280;41086;46.736;15.666;2022-08-02T03:40:08;98526.41;;;17.80;nan
55217;BME280;41086;46.736;15.666;2022-08-02T03:42:37;98528.50;;;17.77;nan
55217;BME280;41086;46.736;15.666;2022-08-02T03:45:08;98538.22;;;17.78;nan
55217;BME280;41086;46.736;15.666;2022-08-02T03:47:39;98541.50;;;17.71;nan
55217;BME280;41086;46.736;15.666;2022-08-02T03:50:10;98541.38;;;17.73;nan
55217;BME280;41086;46.736;15.666;2022-08-02T03:52:40;98531.50;;;17.73;nan
55217;BME280;41086;46.736;15.666;2022-08-02T03:55:09;98539.41;;;17.75;nan
55217;BME280;41086;46.736;15.666;2022-08-02T03:57:40;98534.59;;;17.79;nan
55217;BME280;41086;46.736;15.666;2022-08-02T04:00:10;98543.47;;;17.79;nan
55217;BME280;41086;46.736;15.666;2022-08-02T04:02:40;98540.91;;;17.78;nan
55217;BME280;41086;46.736;15.666;2022-08-02T04:05:07;98551.53;;;17.79;nan
55217;BME280;41086;46.736;15.666;2022-08-02T04:07:34;98550.38;;;17.82;nan
55217;BME280;41086;46.736;15.666;2022-08-02T04:10:21;98550.06;;;17.85;nan
55217;BME280;41086;46.736;15.666;2022-08-02T04:12:48;98533.88;;;17.77;nan
55217;BME280;41086;46.736;15.666;2022-08-02T04:15:15;98554.00;;;17.90;nan
55217;BME280;41086;46.736;15.666;2022-08-02T04:17:47;98562.56;;;17.94;nan
55217;BME280;41086;46.736;15.666;2022-08-02T04:20:23;98562.75;;;17.92;nan
55217;BME280;41086;46.736;15.666;2022-08-02T04:23:03;98560.75;;;17.94;nan
55217;BME280;41086;46.736;15.666;2022-08-02T04:25:32;98559.75;;;17.96;nan
55217;BME280;41086;46.736;15.666;2022-08-02T04:28:06;98564.13;;;17.97;nan
55217;BME280;41086;46.736;15.666;2022-08-02T04:30:44;98574.25;;;18.03;nan
55217;BME280;41086;46.736;15.666;2022-08-02T04:33:11;98574.78;;;18.06;nan
55217;BME280;41086;46.736;15.666;2022-08-02T04:35:38;98577.34;;;18.08;nan
55217;BME280;41086;46.736;15.666;2022-08-02T04:38:05;98583.38;;;18.10;nan
55217;BME280;41086;46.736;15.666;2022-08-02T04:40:36;98589.31;;;18.13;nan
55217;BME280;41086;46.736;15.666;2022-08-02T04:43:03;98583.47;;;18.18;nan
55217;BME280;41086;46.736;15.666;2022-08-02T04:45:30;98584.88;;;18.22;nan
55217;BME280;41086;46.736;15.666;2022-08-02T04:47:58;98582.72;;;18.26;nan
55217;BME280;41086;46.736;15.666;2022-08-02T04:50:30;98589.63;;;18.28;nan
55217;BME280;41086;46.736;15.666;2022-08-02T04:52:57;98590.63;;;18.27;nan
55217;BME280;41086;46.736;15.666;2022-08-02T04:55:24;98592.75;;;18.24;nan
55217;BME280;41086;46.736;15.666;2022-08-02T04:57:54;98597.75;;;18.19;nan
55217;BME280;41086;46.736;15.666;2022-08-02T05:00:22;98589.53;;;18.20;nan
55217;BME280;41086;46.736;15.666;2022-08-02T05:02:50;98589.84;;;18.17;nan
55217;BME280;41086;46.736;15.666;2022-08-02T05:05:18;98575.91;;;18.13;nan
55217;BME280;41086;46.736;15.666;2022-08-02T05:07:45;98584.59;;;18.15;nan
55217;BME280;41086;46.736;15.666;2022-08-02T05:10:12;98584.59;;;18.15;nan
55217;BME280;41086;46.736;15.666;2022-08-02T05:12:39;98580.56;;;18.11;nan
55217;BME280;41086;46.736;15.666;2022-08-02T05:15:07;98595.19;;;18.17;nan
55217;BME280;41086;46.736;15.666;2022-08-02T05:17:36;98603.38;;;18.15;nan
55217;BME280;41086;46.736;15.666;2022-08-02T05:20:05;98604.38;;;18.14;nan
55217;BME280;41086;46.736;15.666;2022-08-02T05:22:32;98601.66;;;18.24;nan
55217;BME280;41086;46.736;15.666;2022-08-02T05:24:59;98621.81;;;18.28;nan
55217;BME280;41086;46.736;15.666;2022-08-02T05:27:26;98608.78;;;18.33;nan
55217;BME280;41086;46.736;15.666;2022-08-02T05:29:53;98607.94;;;18.51;nan
55217;BME280;41086;46.736;15.666;2022-08-02T05:32:22;98631.81;;;18.54;nan
55217;BME280;41086;46.736;15.666;2022-08-02T05:34:51;98621.09;;;18.54;nan
55217;BME280;41086;46.736;15.666;2022-08-02T05:37:17;98626.63;;;18.70;nan
55217;BME280;41086;46.736;15.666;2022-08-02T05:39:44;98626.88;;;18.77;nan
55217;BME280;41086;46.736;15.666;2022-08-02T05:42:22;98627.69;;;18.95;nan
55217;BME280;41086;46.736;15.666;2022-08-02T05:44:49;98634.75;;;19.14;nan
55217;BME280;41086;46.736;15.666;2022-08-02T05:47:15;98640.28;;;19.39;nan
55217;BME280;41086;46.736;15.666;2022-08-02T05:49:42;98647.31;;;19.58;nan
55217;BME280;41086;46.736;15.666;2022-08-02T05:54:56;98656.84;;;19.78;nan
55217;BME280;41086;46.736;15.666;2022-08-02T06:00:11;98645.38;;;20.02;nan
55217;BME280;41086;46.736;15.666;2022-08-02T06:05:09;98651.03;;;20.25;nan
55217;BME280;41086;46.736;15.666;2022-08-02T06:07:40;98645.16;;;20.38;nan
55217;BME280;41086;46.736;15.666;2022-08-02T06:10:08;98658.56;;;20.64;nan
55217;BME280;41086;46.736;15.666;2022-08-02T06:12:50;98659.63;;;20.79;nan
55217;BME280;41086;46.736;15.666;2022-08-02T06:15:19;98659.31;;;21.07;nan
55217;BME280;41086;46.736;15.666;2022-08-02T06:17:46;98663.53;;;21.26;nan
55217;BME280;41086;46.736;15.666;2022-08-02T06:20:14;98646.66;;;21.16;nan
55217;BME280;41086;46.736;15.666;2022-08-02T06:22:42;98669.44;;;21.38;nan
55217;BME280;41086;46.736;15.666;2022-08-02T06:25:10;98671.94;;;21.31;nan
55217;BME280;41086;46.736;15.666;2022-08-02T06:27:58;98669.06;;;21.24;nan
55217;BME280;41086;46.736;15.666;2022-08-02T06:30:26;98677.50;;;21.13;nan
55217;BME280;41086;46.736;15.666;2022-08-02T06:32:53;98677.81;;;21.02;nan
55217;BME280;41086;46.736;15.666;2022-08-02T06:35:21;98682.88;;;21.05;nan
55217;BME280;41086;46.736;15.666;2022-08-02T06:37:53;98677.00;;;21.18;nan
55217;BME280;41086;46.736;15.666;2022-08-02T06:40:34;98673.13;;;21.29;nan
55217;BME280;41086;46.736;15.666;2022-08-02T06:43:12;98676.81;;;21.36;nan
55217;BME280;41086;46.736;15.666;2022-08-02T06:45:43;98672.44;;;21.59;nan
55217;BME280;41086;46.736;15.666;2022-08-02T06:48:10;98686.06;;;21.82;nan
55217;BME280;41086;46.736;15.666;2022-08-02T06:50:37;98689.03;;;21.96;nan
55217;BME280;41086;46.736;15.666;2022-08-02T06:53:05;98687.84;;;22.06;nan
55217;BME280;41086;46.736;15.666;2022-08-02T06:55:32;98677.22;;;22.05;nan
55217;BME280;41086;46.736;15.666;2022-08-02T06:58:08;98692.25;;;21.99;nan
55217;BME280;41086;46.736;15.666;2022-08-02T07:00:35;98691.44;;;21.90;nan
55217;BME280;41086;46.736;15.666;2022-08-02T07:03:03;98677.66;;;21.77;nan
55217;BME280;41086;46.736;15.666;2022-08-02T07:05:30;98688.28;;;21.62;nan
55217;BME280;41086;46.736;15.666;2022-08-02T07:07:57;98692.34;;;21.66;nan
55217;BME280;41086;46.736;15.666;2022-08-02T07:10:24;98690.81;;;21.64;nan
55217;BME280;41086;46.736;15.666;2022-08-02T07:12:50;98692.69;;;21.63;nan
55217;BME280;41086;46.736;15.666;2022-08-02T07:15:17;98689.47;;;21.52;nan
55217;BME280;41086;46.736;15.666;2022-08-02T07:17:44;98678.34;;;21.63;nan
55217;BME280;41086;46.736;15.666;2022-08-02T07:20:11;98681.34;;;21.68;nan
55217;BME280;41086;46.736;15.666;2022-08-02T07:22:39;98678.34;;;21.63;nan
55217;BME280;41086;46.736;15.666;2022-08-02T07:25:07;98686.78;;;21.52;nan
55217;BME280;41086;46.736;15.666;2022-08-02T07:27:34;98690.66;;;21.49;nan
55217;BME280;41086;46.736;15.666;2022-08-02T07:30:00;98686.97;;;21.50;nan
55217;BME280;41086;46.736;15.666;2022-08-02T07:32:30;98688.97;;;21.56;nan
55217;BME280;41086;46.736;15.666;2022-08-02T07:34:58;98681.91;;;21.55;nan
55217;BME280;41086;46.736;15.666;2022-08-02T07:37:31;98688.47;;;21.61;nan
55217;BME280;41086;46.736;15.666;2022-08-02T07:40:18;98688.13;;;21.64;nan
55217;BME280;41086;46.736;15.666;2022-08-02T07:42:48;98692.81;;;21.70;nan
55217;BME280;41086;46.736;15.666;2022-08-02T07:45:18;98690.59;;;21.82;nan
55217;BME280;41086;46.736;15.666;2022-08-02T07:47:45;98686.06;;;21.82;nan
55217;BME280;41086;46.736;15.666;2022-08-02T07:50:14;98697.06;;;21.64;nan
55217;BME280;41086;46.736;15.666;2022-08-02T07:52:42;98675.50;;;21.56;nan
55217;BME280;41086;46.736;15.666;2022-08-02T07:55:10;98688.13;;;21.72;nan
55217;BME280;41086;46.736;15.666;2022-08-02T07:57:38;98680.50;;;21.84;nan
55217;BME280;41086;46.736;15.666;2022-08-02T08:00:11;98692.66;;;21.80;nan
55217;BME280;41086;46.736;15.666;2022-08-02T08:02:39;98690.81;;;21.72;nan
55217;BME280;41086;46.736;15.666;2022-08-02T08:05:06;98683.56;;;21.73;nan
55217;BME280;41086;46.736;15.666;2022-08-02T08:07:34;98686.94;;;21.75;nan
55217;BME280;41086;46.736;15.666;2022-08-02T08:10:01;98685.22;;;21.74;nan
55217;BME280;41086;46.736;15.666;2022-08-02T08:12:28;98687.09;;;21.65;nan
55217;BME280;41086;46.736;15.666;2022-08-02T08:14:54;98685.78;;;21.61;nan
55217;BME280;41086;46.736;15.666;2022-08-02T08:17:21;98689.97;;;21.72;nan
55217;BME280;41086;46.736;15.666;2022-08-02T08:19:48;98687.59;;;21.60;nan
55217;BME280;41086;46.736;15.666;2022-08-02T08:22:19;98683.41;;;21.50;nan
55217;BME280;41086;46.736;15.666;2022-08-02T08:24:46;98692.50;;;21.57;nan
55217;BME280;41086;46.736;15.666;2022-08-02T08:27:14;98696.22;;;21.56;nan
55217;BME280;41086;46.736;15.666;2022-08-02T08:29:41;98707.69;;;21.66;nan
55217;BME280;41086;46.736;15.666;2022-08-02T08:32:09;98704.66;;;21.61;nan
55217;BME280;41086;46.736;15.666;2022-08-02T08:34:41;98704.81;;;21.51;nan
55217;BME280;41086;46.736;15.666;2022-08-02T08:37:08;98711.56;;;21.55;nan
55217;BME280;41086;46.736;15.666;2022-08-02T08:39:34;98716.63;;;21.42;nan
55217;BME280;41086;46.736;15.666;2022-08-02T08:42:04;98722.34;;;21.39;nan
55217;BME280;41086;46.736;15.666;2022-08-02T08:44:31;98721.34;;;21.40;nan
55217;BME280;41086;46.736;15.666;2022-08-02T08:46:59;98729.88;;;21.35;nan
55217;BME280;41086;46.736;15.666;2022-08-02T08:49:30;98732.59;;;21.35;nan
55217;BME280;41086;46.736;15.666;2022-08-02T08:52:03;98731.59;;;21.28;nan
55217;BME280;41086;46.736;15.666;2022-08-02T08:54:32;98732.91;;;21.32;nan
55217;BME280;41086;46.736;15.666;2022-08-02T08:57:04;98735.47;;;21.34;nan
55217;BME280;41086;46.736;15.666;2022-08-02T08:59:31;98737.97;;;21.35;nan
55217;BME280;41086;46.736;15.666;2022-08-02T09:02:05;98733.06;;;21.22;nan
55217;BME280;41086;46.736;15.666;2022-08-02T09:04:42;98737.81;;;21.29;nan
55217;BME280;41086;46.736;15.666;2022-08-02T09:07:20;98747.09;;;21.34;nan
55217;BME280;41086;46.736;15.666;2022-08-02T09:09:47;98748.78;;;21.43;nan
55217;BME280;41086;46.736;15.666;2022-08-02T09:12:15;98747.81;;;21.44;nan
55217;BME280;41086;46.736;15.666;2022-08-02T09:14:42;98745.75;;;21.46;nan
55217;BME280;41086;46.736;15.666;2022-08-02T09:17:10;98733.97;;;21.39;nan
55217;BME280;41086;46.736;15.666;2022-08-02T09:19:39;98754.03;;;21.61;nan
55217;BME280;41086;46.736;15.666;2022-08-02T09:22:12;98750.84;;;21.66;nan
55217;BME280;41086;46.736;15.666;2022-08-02T09:27:21;98754.38;;;21.75;nan
55217;BME280;41086;46.736;15.666;2022-08-02T09:29:52;98748.13;;;21.82;nan
55217;BME280;41086;46.736;15.666;2022-08-02T09:32:45;98745.56;;;21.89;nan
55217;BME280;41086;46.736;15.666;2022-08-02T09:35:33;98755.66;;;22.03;nan
55217;BME280;41086;46.736;15.666;2022-08-02T09:38:20;98748.94;;;21.99;nan
55217;BME280;41086;46.736;15.666;2022-08-02T09:40:47;98752.63;;;21.98;nan
55217;BME280;41086;46.736;15.666;2022-08-02T09:43:14;98755.84;;;21.94;nan
55217;BME280;41086;46.736;15.666;2022-08-02T09:45:42;98753.53;;;21.82;nan
55217;BME280;41086;46.736;15.666;2022-08-02T09:48:09;98763.63;;;21.72;nan
55217;BME280;41086;46.736;15.666;2022-08-02T09:50:38;98753.69;;;21.56;nan
55217;BME280;41086;46.736;15.666;2022-08-02T09:53:12;98759.75;;;21.58;nan
55217;BME280;41086;46.736;15.666;2022-08-02T09:55:40;98753.69;;;21.64;nan
55217;BME280;41086;46.736;15.666;2022-08-02T09:58:18;98756.38;;;21.64;nan
55217;BME280;41086;46.736;15.666;2022-08-02T10:00:55;98750.84;;;21.66;nan
55217;BME280;41086;46.736;15.666;2022-08-02T10:03:23;98748.28;;;21.81;nan
55217;BME280;41086;46.736;15.666;2022-08-02T10:05:57;98744.88;;;21.87;nan
55217;BME280;41086;46.736;15.666;2022-08-02T10:08:30;98746.91;;;21.93;nan
55217;BME280;41086;46.736;15.666;2022-08-02T10:10:59;98746.38;;;22.06;nan
55217;BME280;41086;46.736;15.666;2022-08-02T10:13:31;98746.03;;;22.09;nan
55217;BME280;41086;46.736;15.666;2022-08-02T10:15:58;98741.16;;;22.21;nan
55217;BME280;41086;46.736;15.666;2022-08-02T10:18:26;98740.78;;;22.32;nan
55217;BME280;41086;46.736;15.666;2022-08-02T10:21:16;98728.88;;;22.49;nan
55217;BME280;41086;46.736;15.666;2022-08-02T10:23:47;98728.44;;;22.69;nan
55217;BME280;41086;46.736;15.666;2022-08-02T10:26:16;98717.03;;;22.59;nan
55217;BME280;41086;46.736;15.666;2022-08-02T10:28:48;98721.94;;;22.55;nan
55217;BME280;41086;46.736;15.666;2022-08-02T10:31:21;98720.97;;;22.48;nan
55217;BME280;41086;46.736;15.666;2022-08-02T10:33:50;98715.34;;;22.57;nan
55217;BME280;41086;46.736;15.666;2022-08-02T10:36:20;98730.34;;;22.60;nan
55217;BME280;41086;46.736;15.666;2022-08-02T10:38:49;98733.41;;;22.57;nan
55217;BME280;41086;46.736;15.666;2022-08-02T10:44:06;98733.66;;;22.78;nan
55217;BME280;41086;46.736;15.666;2022-08-02T10:46:35;98736.13;;;22.96;nan
55217;BME280;41086;46.736;15.666;2022-08-02T10:52:03;98731.69;;;23.73;nan
55217;BME280;41086;46.736;15.666;2022-08-02T10:54:41;98739.28;;;24.22;nan
55217;BME280;41086;46.736;15.666;2022-08-02T10:57:15;98731.88;;;24.90;nan
55217;BME280;41086;46.736;15.666;2022-08-02T10:59:43;98730.19;;;25.47;nan
55217;BME280;41086;46.736;15.666;2022-08-02T11:02:10;98730.69;;;26.41;nan
55217;BME280;41086;46.736;15.666;2022-08-02T11:07:12;98728.56;;;27.39;nan
55217;BME280;41086;46.736;15.666;2022-08-02T11:09:41;98722.94;;;27.94;nan
55217;BME280;41086;46.736;15.666;2022-08-02T11:12:13;98721.16;;;28.53;nan
55217;BME280;41086;46.736;15.666;2022-08-02T11:14:43;98707.25;;;29.13;nan
55217;BME280;41086;46.736;15.666;2022-08-02T11:17:14;98718.13;;;29.51;nan
55217;BME280;41086;46.736;15.666;2022-08-02T11:22:40;98716.03;;;30.22;nan
55217;BME280;41086;46.736;15.666;2022-08-02T11:27:56;98716.44;;;30.62;nan
55217;BME280;41086;46.736;15.666;2022-08-02T11:30:24;98714.28;;;30.64;nan
55217;BME280;41086;46.736;15.666;2022-08-02T11:32:57;98712.25;;;30.78;nan
55217;BME280;41086;46.736;15.666;2022-08-02T11:35:37;98700.25;;;30.42;nan
55217;BME280;41086;46.736;15.666;2022-08-02T11:38:19;98702.41;;;30.40;nan
55217;BME280;41086;46.736;15.666;2022-08-02T11:40:47;98697.19;;;30.69;nan
55217;BME280;41086;46.736;15.666;2022-08-02T11:43:19;98705.63;;;30.86;nan
55217;BME280;41086;46.736;15.666;2022-08-02T11:45:48;98691.88;;;30.74;nan
55217;BME280;41086;46.736;15.666;2022-08-02T11:51:07;98702.25;;;30.54;nan
55217;BME280;41086;46.736;15.666;2022-08-02T11:56:09;98698.75;;;30.46;nan
55217;BME280;41086;46.736;15.666;2022-08-02T11:58:37;98710.72;;;30.64;nan
55217;BME280;41086;46.736;15.666;2022-08-02T12:01:04;98702.25;;;30.54;nan
55217;BME280;41086;46.736;15.666;2022-08-02T12:03:40;98704.53;;;30.38;nan
55217;BME280;41086;46.736;15.666;2022-08-02T12:06:07;98699.91;;;30.39;nan
55217;BME280;41086;46.736;15.666;2022-08-02T12:08:36;98693.53;;;30.01;nan
55217;BME280;41086;46.736;15.666;2022-08-02T12:11:03;98688.53;;;29.48;nan
55217;BME280;41086;46.736;15.666;2022-08-02T12:13:43;98694.72;;;29.37;nan
55217;BME280;41086;46.736;15.666;2022-08-02T12:16:12;98698.84;;;29.46;nan
55217;BME280;41086;46.736;15.666;2022-08-02T12:18:58;98706.63;;;29.43;nan
55217;BME280;41086;46.736;15.666;2022-08-02T12:21:43;98706.03;;;29.41;nan
55217;BME280;41086;46.736;15.666;2022-08-02T12:24:11;98709.81;;;29.01;nan
55217;BME280;41086;46.736;15.666;2022-08-02T12:26:43;98725.78;;;28.33;nan
55217;BME280;41086;46.736;15.666;2022-08-02T12:29:11;98716.44;;;27.95;nan
55217;BME280;41086;46.736;15.666;2022-08-02T12:31:43;98720.19;;;27.54;nan
55217;BME280;41086;46.736;15.666;2022-08-02T12:34:21;98713.06;;;27.20;nan
55217;BME280;41086;46.736;15.666;2022-08-02T12:37:08;98731.38;;;26.98;nan
55217;BME280;41086;46.736;15.666;2022-08-02T12:39:43;98729.19;;;26.73;nan
55217;BME280;41086;46.736;15.666;2022-08-02T12:42:13;98726.69;;;26.37;nan
55217;BME280;41086;46.736;15.666;2022-08-02T12:44:54;98724.84;;;26.09;nan
55217;BME280;41086;46.736;15.666;2022-08-02T12:47:23;98725.03;;;25.80;nan
55217;BME280;41086;46.736;15.666;2022-08-02T12:52:42;98723.00;;;25.60;nan
55217;BME280;41086;46.736;15.666;2022-08-02T12:55:21;98724.94;;;25.45;nan
55217;BME280;41086;46.736;15.666;2022-08-02T12:58:03;98717.69;;;25.09;nan
55217;BME280;41086;46.736;15.666;2022-08-02T13:00:35;98727.69;;;25.09;nan
55217;BME280;41086;46.736;15.666;2022-08-02T13:03:03;98720.22;;;25.11;nan
55217;BME280;41086;46.736;15.666;2022-08-02T13:05:36;98713.91;;;25.25;nan
55217;BME280;41086;46.736;15.666;2022-08-02T13:08:21;98716.97;;;26.15;nan
55217;BME280;41086;46.736;15.666;2022-08-02T13:10:48;98720.16;;;27.21;nan
55217;BME280;41086;46.736;15.666;2022-08-02T13:13:16;98699.50;;;27.93;nan
55217;BME280;41086;46.736;15.666;2022-08-02T13:15:43;98712.38;;;28.38;nan
55217;BME280;41086;46.736;15.666;2022-08-02T13:18:16;98713.47;;;28.23;nan
55217;BME280;41086;46.736;15.666;2022-08-02T13:20:44;98706.16;;;27.97;nan
55217;BME280;41086;46.736;15.666;2022-08-02T13:23:11;98681.03;;;27.62;nan
55217;BME280;41086;46.736;15.666;2022-08-02T13:25:47;98706.16;;;27.37;nan
55217;BME280;41086;46.736;15.666;2022-08-02T13:28:19;98702.72;;;27.09;nan
55217;BME280;41086;46.736;15.666;2022-08-02T13:30:46;98703.47;;;26.76;nan
55217;BME280;41086;46.736;15.666;2022-08-02T13:33:15;98699.59;;;26.50;nan
55217;BME280;41086;46.736;15.666;2022-08-02T13:35:43;98705.13;;;26.29;nan
55217;BME280;41086;46.736;15.666;2022-08-02T13:38:10;98697.31;;;26.13;nan
55217;BME280;41086;46.736;15.666;2022-08-02T13:40:37;98690.94;;;25.99;nan
55217;BME280;41086;46.736;15.666;2022-08-02T13:43:30;98683.03;;;25.48;nan
55217;BME280;41086;46.736;15.666;2022-08-02T13:46:17;98680.06;;;25.21;nan
55217;BME280;41086;46.736;15.666;2022-08-02T13:48:54;98679.81;;;24.94;nan
55217;BME280;41086;46.736;15.666;2022-08-02T13:51:21;98672.16;;;24.83;nan
55217;BME280;41086;46.736;15.666;2022-08-02T13:53:48;98663.59;;;25.44;nan
55217;BME280;41086;46.736;15.666;2022-08-02T13:56:15;98657.56;;;26.05;nan
55217;BME280;41086;46.736;15.666;2022-08-02T13:58:42;98650.41;;;26.93;nan
55217;BME280;41086;46.736;15.666;2022-08-02T14:01:09;98668.72;;;26.65;nan
55217;BME280;41086;46.736;15.666;2022-08-02T14:03:36;98670.47;;;26.86;nan
55217;BME280;41086;46.736;15.666;2022-08-02T14:06:22;98668.16;;;26.83;nan
55217;BME280;41086;46.736;15.666;2022-08-02T14:08:49;98677.97;;;26.29;nan
55217;BME280;41086;46.736;15.666;2022-08-02T14:11:16;98677.13;;;25.94;nan
55217;BME280;41086;46.736;15.666;2022-08-02T14:13:43;98672.97;;;25.70;nan